createdAt,value
2023-01-29T10:32:05.885Z,99281.50
2023-01-29T10:34:32.272Z,99282.09
2023-01-29T10:36:58.552Z,99287.63
2023-01-29T10:39:25.462Z,99276.97
2023-01-29T10:42:09.877Z,99273.38
2023-01-29T10:44:36.076Z,99267.94
2023-01-29T10:47:21.388Z,99264.22
2023-01-29T10:50:01.041Z,99252.91
2023-01-29T10:52:46.177Z,99254.19
2023-01-29T10:55:16.249Z,99253.53
2023-01-29T10:57:52.630Z,99247.66
2023-01-29T11:00:18.940Z,99255.44
2023-01-29T11:02:46.803Z,99263.00
2023-01-29T11:05:27.137Z,99254.91
2023-01-29T11:08:04.621Z,99250.84
2023-01-29T11:10:31.826Z,99252.53
2023-01-29T11:12:58.122Z,99258.84
2023-01-29T11:15:24.970Z,99237.78
2023-01-29T11:18:04.396Z,99233.44
2023-01-29T11:20:30.872Z,99227.81
2023-01-29T11:22:57.979Z,99225.84
2023-01-29T11:25:24.689Z,99221.66
2023-01-29T11:27:52.637Z,99218.44
2023-01-29T11:30:28.950Z,99211.88
2023-01-29T11:32:58.348Z,99197.25
2023-01-29T11:35:24.834Z,99193.44
2023-01-29T11:37:51.129Z,99205.22
2023-01-29T11:40:36.692Z,99190.78
2023-01-29T11:43:13.191Z,99177.34
2023-01-29T11:45:40.185Z,99173.88
2023-01-29T11:48:06.480Z,99161.75
2023-01-29T11:50:32.967Z,99164.56
2023-01-29T11:52:59.507Z,99160.28
2023-01-29T11:55:26.814Z,99171.38
2023-01-29T11:57:54.235Z,99169.25
2023-01-29T12:00:24.867Z,99164.00
2023-01-29T12:03:26.550Z,99173.97
2023-01-29T12:05:56.971Z,99162.81
2023-01-29T12:08:23.453Z,99160.47
2023-01-29T12:10:49.764Z,99161.75
2023-01-29T12:13:26.349Z,99160.94
2023-01-29T12:16:05.163Z,99154.00
2023-01-29T12:18:42.014Z,99157.53
2023-01-29T12:21:16.983Z,99147.94
2023-01-29T12:23:52.334Z,99145.81
2023-01-29T12:26:35.233Z,99134.06
2023-01-29T12:29:07.901Z,99136.13
2023-01-29T12:31:43.341Z,99125.69
2023-01-29T12:34:28.536Z,99121.31
2023-01-29T12:37:06.760Z,99115.19
2023-01-29T12:39:33.047Z,99116.66
2023-01-29T12:42:00.015Z,99097.97
2023-01-29T12:44:31.308Z,99097.72
2023-01-29T12:46:58.399Z,99091.09
2023-01-29T12:49:25.513Z,99085.78
2023-01-29T12:52:13.403Z,99087.38
2023-01-29T12:54:41.085Z,99084.16
2023-01-29T12:57:14.223Z,99071.06
2023-01-29T12:59:42.888Z,99070.75
2023-01-29T13:02:09.095Z,99058.16
2023-01-29T13:04:36.955Z,99067.19
2023-01-29T13:07:10.074Z,99053.31
2023-01-29T13:09:38.188Z,99069.81
2023-01-29T13:12:06.694Z,99064.47
2023-01-29T13:14:40.945Z,99060.50
2023-01-29T13:17:12.962Z,99050.41
2023-01-29T13:19:40.901Z,99055.50
2023-01-29T13:22:18.415Z,99059.78
2023-01-29T13:24:55.453Z,99066.97
2023-01-29T13:27:30.372Z,99064.53
2023-01-29T13:29:56.652Z,99060.50
2023-01-29T13:32:24.797Z,99059.94
2023-01-29T13:34:51.195Z,99061.25
2023-01-29T13:37:28.239Z,99053.44
2023-01-29T13:39:54.636Z,99052.63
2023-01-29T13:42:25.599Z,99056.34
2023-01-29T13:44:55.678Z,99056.84
2023-01-29T13:47:23.596Z,99045.59
2023-01-29T13:49:59.069Z,99047.72
2023-01-29T13:52:34.208Z,99052.47
2023-01-29T13:55:04.612Z,99050.34
2023-01-29T13:57:35.441Z,99044.41
2023-01-29T14:00:01.787Z,99050.56
2023-01-29T14:02:28.677Z,99048.94
2023-01-29T14:05:30.513Z,99045.22
2023-01-29T14:08:00.380Z,99038.53
2023-01-29T14:10:27.339Z,99042.00
2023-01-29T14:12:54.255Z,99045.16
2023-01-29T14:15:24.684Z,99035.56
2023-01-29T14:18:14.515Z,99028.63
2023-01-29T14:20:49.938Z,99029.09
2023-01-29T14:23:36.540Z,99026.09
2023-01-29T14:26:04.798Z,99029.03
2023-01-29T14:28:31.489Z,99029.50
2023-01-29T14:30:57.944Z,99032.16
2023-01-29T14:33:37.160Z,99021.75
2023-01-29T14:36:04.396Z,99021.50
2023-01-29T14:38:30.727Z,99024.44
2023-01-29T14:41:04.753Z,99017.50
2023-01-29T14:43:31.075Z,99018.56
2023-01-29T14:45:57.430Z,99018.22
2023-01-29T14:48:39.170Z,99006.97
2023-01-29T14:51:07.996Z,99007.47
2023-01-29T14:53:54.555Z,99005.28
2023-01-29T14:56:20.799Z,99008.19
2023-01-29T14:58:51.074Z,99016.66
2023-01-29T15:01:25.197Z,99007.06
2023-01-29T15:04:04.104Z,99008.94
2023-01-29T15:06:39.375Z,99005.69
2023-01-29T15:09:10.391Z,99012.59
2023-01-29T15:11:38.689Z,99006.66
2023-01-29T15:14:05.014Z,99000.78
2023-01-29T15:16:32.410Z,98998.13
2023-01-29T15:19:04.549Z,99006.59
2023-01-29T15:21:30.847Z,98992.72
2023-01-29T15:24:03.990Z,98996.69
2023-01-29T15:26:30.627Z,98991.34
2023-01-29T15:29:03.253Z,98986.03
2023-01-29T15:31:30.482Z,98984.88
2023-01-29T15:33:56.898Z,98987.81
2023-01-29T15:36:30.066Z,98980.03
2023-01-29T15:39:11.478Z,98975.47
2023-01-29T15:41:37.786Z,98977.00
2023-01-29T15:44:04.123Z,98975.06
2023-01-29T15:46:34.071Z,98985.13
2023-01-29T15:49:00.715Z,98971.81
2023-01-29T15:51:27.079Z,98974.41
2023-01-29T15:53:57.340Z,98969.66
2023-01-29T15:56:31.674Z,98963.84
2023-01-29T15:58:58.386Z,98958.75
2023-01-29T16:01:27.740Z,98957.97
2023-01-29T16:03:54.085Z,98945.72
2023-01-29T16:06:20.614Z,98955.78
2023-01-29T16:08:48.304Z,98953.03
2023-01-29T16:11:14.618Z,98943.69
2023-01-29T16:13:42.848Z,98944.97
2023-01-29T16:16:15.021Z,98945.22
2023-01-29T16:18:58.847Z,98941.75
2023-01-29T16:21:33.268Z,98935.84
2023-01-29T16:24:00.866Z,98940.63
2023-01-29T16:26:33.933Z,98940.28
2023-01-29T16:29:18.904Z,98931.72
2023-01-29T16:31:45.744Z,98932.75
2023-01-29T16:34:24.693Z,98936.72
2023-01-29T16:36:52.191Z,98925.28
2023-01-29T16:39:20.969Z,98924.47
2023-01-29T16:42:00.114Z,98915.91
2023-01-29T16:44:37.258Z,98917.75
2023-01-29T16:47:11.009Z,98912.69
2023-01-29T16:49:37.253Z,98909.44
2023-01-29T16:52:19.226Z,98899.84
2023-01-29T16:54:45.620Z,98901.97
2023-01-29T16:57:15.911Z,98902.69
2023-01-29T16:59:42.741Z,98895.97
2023-01-29T17:02:11.307Z,98889.84
2023-01-29T17:04:40.979Z,98879.69
2023-01-29T17:07:12.656Z,98868.75
2023-01-29T17:09:38.985Z,98866.09
2023-01-29T17:12:06.351Z,98864.44
2023-01-29T17:14:32.879Z,98859.47
2023-01-29T17:17:02.846Z,98845.91
2023-01-29T17:19:30.163Z,98848.34
2023-01-29T17:21:56.963Z,98843.84
2023-01-29T17:24:23.317Z,98848.56
2023-01-29T17:26:49.729Z,98852.06
2023-01-29T17:29:20.067Z,98853.34
2023-01-29T17:31:46.475Z,98843.97
2023-01-29T17:34:14.379Z,98836.72
2023-01-29T17:36:41.243Z,98837.78
2023-01-29T17:39:16.098Z,98846.34
2023-01-29T17:41:42.735Z,98836.09
2023-01-29T17:44:09.058Z,98839.81
2023-01-29T17:46:36.238Z,98833.69
2023-01-29T17:49:04.388Z,98833.97
2023-01-29T17:51:30.716Z,98832.88
2023-01-29T17:53:57.018Z,98827.84
2023-01-29T17:56:32.386Z,98819.81
2023-01-29T17:58:58.706Z,98823.00
2023-01-29T18:01:26.424Z,98822.59
2023-01-29T18:03:52.913Z,98834.09
2023-01-29T18:06:22.207Z,98833.09
2023-01-29T18:08:48.941Z,98832.31
2023-01-29T18:11:15.285Z,98817.88
2023-01-29T18:13:41.959Z,98821.34
2023-01-29T18:16:08.644Z,98817.69
2023-01-29T18:18:34.983Z,98822.25
2023-01-29T18:21:01.799Z,98818.66
2023-01-29T18:23:29.476Z,98812.06
2023-01-29T18:25:57.624Z,98807.09
2023-01-29T18:28:23.997Z,98796.78
2023-01-29T18:30:50.374Z,98796.03
2023-01-29T18:33:17.141Z,98791.75
2023-01-29T18:35:44.051Z,98783.50
2023-01-29T18:38:10.368Z,98783.25
2023-01-29T18:40:36.680Z,98785.09
2023-01-29T18:43:04.170Z,98773.16
2023-01-29T18:45:30.547Z,98771.28
2023-01-29T18:47:57.560Z,98767.00
2023-01-29T18:50:24.974Z,98768.34
2023-01-29T18:52:51.282Z,98765.16
2023-01-29T18:55:17.876Z,98757.69
2023-01-29T18:58:27.798Z,98757.19
2023-01-29T19:00:30.875Z,98751.91
2023-01-29T19:02:57.203Z,98748.22
2023-01-29T19:05:23.735Z,98740.78
2023-01-29T19:07:50.219Z,98741.31
2023-01-29T19:10:16.944Z,98734.13
2023-01-29T19:12:43.390Z,98729.59
2023-01-29T19:15:09.929Z,98723.19
2023-01-29T19:17:36.234Z,98717.84
2023-01-29T19:20:04.741Z,98718.69
2023-01-29T19:22:31.407Z,98713.34
2023-01-29T19:24:58.098Z,98720.50
2023-01-29T19:27:25.910Z,98700.81
2023-01-29T19:29:52.697Z,98693.84
2023-01-29T19:32:19.148Z,98698.66
2023-01-29T19:34:45.499Z,98686.13
2023-01-29T19:37:11.847Z,98686.13
2023-01-29T19:39:38.182Z,98678.13
2023-01-29T19:42:04.503Z,98675.44
2023-01-29T19:44:30.913Z,98669.31
2023-01-29T19:46:57.243Z,98673.28
2023-01-29T19:49:25.131Z,98671.44
2023-01-29T19:51:51.732Z,98657.59
2023-01-29T19:54:19.671Z,98657.06
2023-01-29T19:56:46.242Z,98660.53
2023-01-29T19:59:12.552Z,98652.81
2023-01-29T20:01:38.930Z,98652.25
2023-01-29T20:04:05.957Z,98644.25
2023-01-29T20:06:32.290Z,98626.66
2023-01-29T20:09:01.180Z,98633.59
2023-01-29T20:11:27.511Z,98640.78
2023-01-29T20:13:54.329Z,98646.38
2023-01-29T20:16:20.738Z,98625.56
2023-01-29T20:18:47.152Z,98616.47
2023-01-29T20:21:14.208Z,98609.25
2023-01-29T20:23:40.851Z,98597.78
2023-01-29T20:26:07.506Z,98591.66
2023-01-29T20:28:34.593Z,98577.81
2023-01-29T20:31:01.023Z,98576.44
2023-01-29T20:33:27.402Z,98569.50
2023-01-29T20:35:57.345Z,98553.22
2023-01-29T20:38:23.717Z,98554.28
2023-01-29T20:40:50.116Z,98558.25
2023-01-29T20:43:16.432Z,98553.19
2023-01-29T20:45:42.883Z,98554.81
2023-01-29T20:48:09.216Z,98549.97
2023-01-29T20:50:35.544Z,98541.72
2023-01-29T20:53:01.859Z,98533.97
2023-01-29T20:55:28.495Z,98526.53
2023-01-29T20:58:05.596Z,98517.19
2023-01-29T21:00:33.066Z,98527.06
2023-01-29T21:02:59.407Z,98518.25
2023-01-29T21:05:25.761Z,98499.03
2023-01-29T21:07:52.083Z,98506.69
2023-01-29T21:10:18.739Z,98515.78
2023-01-29T21:12:45.554Z,98520.88
2023-01-29T21:15:11.965Z,98519.28
2023-01-29T21:17:38.283Z,98516.09
2023-01-29T21:20:04.780Z,98510.50
2023-01-29T21:22:31.319Z,98511.13
2023-01-29T21:24:57.647Z,98504.75
2023-01-29T21:27:24.311Z,98499.94
2023-01-29T21:29:50.707Z,98483.72
2023-01-29T21:32:18.175Z,98474.91
2023-01-29T21:34:44.482Z,98488.75
2023-01-29T21:37:10.826Z,98496.47
2023-01-29T21:39:37.173Z,98482.09
2023-01-29T21:42:21.951Z,98491.16
2023-01-29T21:44:48.298Z,98467.44
2023-01-29T21:47:14.634Z,98472.22
2023-01-29T21:49:41.381Z,98459.69
2023-01-29T21:52:07.918Z,98475.69
2023-01-29T21:54:35.561Z,98484.72
2023-01-29T21:57:04.543Z,98458.63
2023-01-29T21:59:32.055Z,98467.09
2023-01-29T22:01:58.834Z,98479.34
2023-01-29T22:04:25.302Z,98470.56
2023-01-29T22:06:51.617Z,98486.59
2023-01-29T22:09:17.921Z,98474.66
2023-01-29T22:11:44.560Z,98459.47
2023-01-29T22:14:10.876Z,98471.78
2023-01-29T22:16:37.247Z,98461.69
2023-01-29T22:19:03.659Z,98467.31
2023-01-29T22:21:29.997Z,98451.84
2023-01-29T22:23:56.334Z,98460.69
2023-01-29T22:26:22.695Z,98442.78
2023-01-29T22:28:49.042Z,98445.75
2023-01-29T22:31:15.384Z,98447.34
2023-01-29T22:33:41.690Z,98458.81
2023-01-29T22:36:08.168Z,98456.94
2023-01-29T22:38:34.479Z,98450.28
2023-01-29T22:41:00.817Z,98453.47
2023-01-29T22:43:27.428Z,98452.94
2023-01-29T22:45:53.748Z,98437.75
2023-01-29T22:48:20.112Z,98440.66
2023-01-29T22:50:53.667Z,98447.06
2023-01-29T22:53:20.207Z,98445.47
2023-01-29T22:55:55.582Z,98442.03
2023-01-29T22:58:21.898Z,98431.06
2023-01-29T23:00:51.315Z,98425.69
2023-01-29T23:03:17.624Z,98421.69
2023-01-29T23:05:43.962Z,98413.91
2023-01-29T23:08:10.279Z,98415.53
2023-01-29T23:10:36.586Z,98413.38
2023-01-29T23:13:02.899Z,98413.38
2023-01-29T23:15:29.213Z,98402.69
2023-01-29T23:17:55.524Z,98395.75
2023-01-29T23:20:21.848Z,98379.19
2023-01-29T23:22:48.605Z,98381.84
2023-01-29T23:25:14.906Z,98347.91
2023-01-29T23:27:41.209Z,98324.13
2023-01-29T23:30:07.881Z,98323.41
2023-01-29T23:32:34.431Z,98287.94
2023-01-29T23:35:00.733Z,98278.09
2023-01-29T23:37:27.046Z,98270.59
2023-01-29T23:39:53.390Z,98283.38
2023-01-29T23:42:20.070Z,98273.47
2023-01-29T23:44:46.454Z,98267.34
2023-01-29T23:47:12.763Z,98280.16
2023-01-29T23:49:39.082Z,98289.50
2023-01-29T23:52:05.413Z,98299.91
2023-01-29T23:54:31.738Z,98305.53
2023-01-29T23:56:58.133Z,98308.47
2023-01-29T23:59:26.612Z,98272.69
